createdAt,value
2023-04-09T00:00:18.457Z,100959.69
2023-04-09T00:01:19.512Z,100963.84
2023-04-09T00:01:59.440Z,100965.22
2023-04-09T00:02:46.805Z,100955.72
2023-04-09T00:03:40.687Z,100959.31
2023-04-09T00:04:34.501Z,100926.72
2023-04-09T00:05:28.405Z,100960.22
2023-04-09T00:06:24.592Z,100966.50
2023-04-09T00:07:18.496Z,100967.94
2023-04-09T00:08:05.466Z,100966.31
2023-04-09T00:08:39.531Z,100967.34
2023-04-09T00:09:27.460Z,100960.59
2023-04-09T00:10:01.541Z,100967.00
2023-04-09T00:10:48.390Z,100953.19
2023-04-09T00:11:22.656Z,100934.00
2023-04-09T00:12:10.431Z,100950.34
2023-04-09T00:12:44.577Z,100966.38
2023-04-09T00:13:35.446Z,100969.72
2023-04-09T00:14:18.534Z,100959.75
2023-04-09T00:14:58.448Z,100961.19
2023-04-09T00:15:38.470Z,100961.34
2023-04-09T00:16:18.485Z,100963.94
2023-04-09T00:17:12.463Z,100944.13
2023-04-09T00:18:06.459Z,100964.81
2023-04-09T00:18:46.434Z,100963.84
2023-04-09T00:19:26.551Z,100968.78
2023-04-09T00:20:07.433Z,100969.50
2023-04-09T00:20:47.463Z,100966.44
2023-04-09T00:21:28.435Z,100950.31
2023-04-09T00:22:08.483Z,100971.09
2023-04-09T00:22:48.431Z,100968.38
2023-04-09T00:23:28.480Z,100972.09
2023-04-09T00:24:08.420Z,100974.94
2023-04-09T00:24:48.515Z,100974.66
2023-04-09T00:25:29.395Z,100974.25
2023-04-09T00:26:09.556Z,100972.25
2023-04-09T00:26:49.428Z,100978.19
2023-04-09T00:27:29.507Z,100974.97
2023-04-09T00:28:10.393Z,100980.25
2023-04-09T00:28:50.720Z,100962.16
2023-04-09T00:29:31.457Z,100965.63
2023-04-09T00:30:12.534Z,100969.56
2023-04-09T00:30:52.411Z,100973.50
2023-04-09T00:31:33.278Z,100977.91
2023-04-09T00:32:14.423Z,100980.13
2023-04-09T00:32:54.901Z,100981.88
2023-04-09T00:33:35.454Z,100966.59
2023-04-09T00:34:15.854Z,100972.41
2023-04-09T00:34:56.390Z,100979.53
2023-04-09T00:35:36.601Z,100983.59
2023-04-09T00:36:16.437Z,100988.75
2023-04-09T00:36:56.477Z,100945.19
2023-04-09T00:37:37.390Z,100978.53
2023-04-09T00:38:17.582Z,100983.84
2023-04-09T00:38:58.505Z,100971.50
2023-04-09T00:39:38.537Z,100980.75
2023-04-09T00:40:19.395Z,100980.41
2023-04-09T00:40:59.515Z,100957.03
2023-04-09T00:41:40.437Z,100987.03
2023-04-09T00:42:21.658Z,100959.94
2023-04-09T00:43:02.430Z,100983.09
2023-04-09T00:43:42.519Z,100972.63
2023-04-09T00:44:22.401Z,100975.81
2023-04-09T00:45:02.533Z,100985.19
2023-04-09T00:45:43.500Z,100986.31
2023-04-09T00:46:24.491Z,100985.31
2023-04-09T00:47:06.417Z,100976.69
2023-04-09T00:47:46.798Z,100963.16
2023-04-09T00:48:26.406Z,100977.19
2023-04-09T00:49:03.677Z,100981.84
2023-04-09T00:49:44.363Z,100982.97
2023-04-09T00:50:24.532Z,100976.06
2023-04-09T00:51:04.414Z,100977.41
2023-04-09T00:51:44.451Z,100981.59
2023-04-09T00:52:24.376Z,100981.84
2023-04-09T00:53:04.465Z,100967.56
2023-04-09T00:53:45.386Z,100979.41
2023-04-09T00:54:25.488Z,100987.88
2023-04-09T00:55:13.384Z,100966.34
2023-04-09T00:55:53.536Z,100974.72
2023-04-09T00:56:34.389Z,100977.69
2023-04-09T00:57:14.461Z,100952.69
2023-04-09T00:57:55.388Z,100949.38
2023-04-09T00:58:35.786Z,100973.25
2023-04-09T00:59:15.394Z,100963.16
2023-04-09T00:59:55.510Z,100967.94
2023-04-09T01:00:35.413Z,100970.66
2023-04-09T01:01:15.592Z,100988.38
2023-04-09T01:01:56.475Z,100969.94
2023-04-09T01:02:36.748Z,100987.28
2023-04-09T01:03:18.448Z,100988.66
2023-04-09T01:03:58.460Z,100988.38
2023-04-09T01:04:39.368Z,100971.06
2023-04-09T01:05:20.455Z,100985.06
2023-04-09T01:06:17.428Z,100980.63
2023-04-09T01:07:15.430Z,100970.06
2023-04-09T01:08:45.363Z,100988.50
2023-04-09T01:09:49.412Z,100987.88
2023-04-09T01:10:59.394Z,100990.22
2023-04-09T01:12:15.419Z,100990.47
2023-04-09T01:13:26.394Z,100989.22
2023-04-09T01:14:38.513Z,100976.41
2023-04-09T01:15:43.470Z,100978.25
2023-04-09T01:16:37.435Z,100990.72
2023-04-09T01:17:53.502Z,100997.63
2023-04-09T01:19:13.411Z,101002.78
2023-04-09T01:20:32.331Z,100991.44
2023-04-09T01:21:31.382Z,100972.47
2023-04-09T01:23:06.404Z,100997.56
2023-04-09T01:24:31.315Z,100992.56
2023-04-09T01:25:55.515Z,101006.69
2023-04-09T01:26:59.329Z,101006.22
2023-04-09T01:28:07.330Z,100989.88
2023-04-09T01:29:07.369Z,101001.56
2023-04-09T01:30:04.382Z,101010.75
2023-04-09T01:31:07.575Z,101012.13
2023-04-09T01:32:02.333Z,100974.22
2023-04-09T01:32:57.400Z,101013.13
2023-04-09T01:33:38.374Z,101014.34
2023-04-09T01:34:18.425Z,101002.91
2023-04-09T01:34:59.623Z,101008.47
2023-04-09T01:35:39.394Z,101008.69
2023-04-09T01:36:20.336Z,101009.31
2023-04-09T01:37:04.461Z,100992.56
2023-04-09T01:37:45.347Z,100997.72
2023-04-09T01:38:27.430Z,101007.84
2023-04-09T01:39:08.347Z,100990.47
2023-04-09T01:39:49.436Z,101003.16
2023-04-09T01:40:30.434Z,101009.91
2023-04-09T01:41:11.412Z,100993.06
2023-04-09T01:41:52.326Z,101013.13
2023-04-09T01:42:32.448Z,100998.59
2023-04-09T01:43:14.339Z,101015.97
2023-04-09T01:43:57.475Z,101015.09
2023-04-09T01:44:38.448Z,100993.66
2023-04-09T01:45:18.420Z,101015.09
2023-04-09T01:45:59.431Z,101007.84
2023-04-09T01:46:40.461Z,101005.84
2023-04-09T01:47:20.323Z,101005.75
2023-04-09T01:48:01.608Z,100995.00
2023-04-09T01:48:42.308Z,100992.94
2023-04-09T01:49:23.514Z,100989.50
2023-04-09T01:50:04.362Z,101004.13
2023-04-09T01:50:44.494Z,100998.84
2023-04-09T01:51:25.315Z,101000.31
2023-04-09T01:52:05.439Z,101002.91
2023-04-09T01:52:46.329Z,101010.50
2023-04-09T01:53:28.457Z,101004.53
2023-04-09T01:54:11.322Z,101005.88
2023-04-09T01:54:51.410Z,101009.94
2023-04-09T01:55:32.358Z,100983.47
2023-04-09T01:56:13.431Z,100999.59
2023-04-09T01:56:55.343Z,100988.66
2023-04-09T01:57:35.599Z,100989.94
2023-04-09T01:58:16.328Z,101004.91
2023-04-09T01:58:56.370Z,101010.09
2023-04-09T01:59:36.300Z,101010.84
2023-04-09T02:00:17.373Z,101005.44
2023-04-09T02:01:00.369Z,101002.97
2023-04-09T02:01:49.655Z,100996.22
2023-04-09T02:03:10.497Z,101004.00
2023-04-09T02:04:16.307Z,101003.63
2023-04-09T02:05:12.327Z,101004.97
2023-04-09T02:06:37.344Z,100990.72
2023-04-09T02:07:55.383Z,100992.78
2023-04-09T02:08:50.513Z,101007.09
2023-04-09T02:09:45.305Z,100968.78
2023-04-09T02:10:41.458Z,101005.75
2023-04-09T02:11:37.398Z,101012.38
2023-04-09T02:12:32.298Z,101006.63
2023-04-09T02:13:29.285Z,100997.13
2023-04-09T02:14:24.269Z,100992.72
2023-04-09T02:15:20.320Z,100993.66
2023-04-09T02:16:15.473Z,100991.22
2023-04-09T02:17:03.341Z,100979.91
2023-04-09T02:17:37.436Z,100994.66
2023-04-09T02:18:44.346Z,100994.66
2023-04-09T02:19:18.373Z,100990.00
2023-04-09T02:20:05.295Z,100980.53
2023-04-09T02:20:39.367Z,101000.34
2023-04-09T02:21:26.299Z,100996.28
2023-04-09T02:22:00.400Z,100976.47
2023-04-09T02:22:40.570Z,100997.25
2023-04-09T02:23:23.420Z,101000.69
2023-04-09T02:24:03.330Z,100991.22
2023-04-09T02:24:43.353Z,100981.38
2023-04-09T02:25:23.276Z,100989.50
2023-04-09T02:26:03.350Z,100994.66
2023-04-09T02:26:43.330Z,101002.41
2023-04-09T02:27:23.350Z,100995.03
2023-04-09T02:28:03.355Z,101000.34
2023-04-09T02:28:43.370Z,100986.81
2023-04-09T02:29:23.277Z,100972.28
2023-04-09T02:30:04.028Z,100988.16
2023-04-09T02:30:44.323Z,100984.59
2023-04-09T02:31:24.645Z,100993.44
2023-04-09T02:32:04.309Z,100982.59
2023-04-09T02:32:44.430Z,100985.31
2023-04-09T02:33:24.313Z,100994.66
2023-04-09T02:34:04.390Z,100989.00
2023-04-09T02:34:44.270Z,100966.81
2023-04-09T02:35:24.454Z,100998.47
2023-04-09T02:36:04.309Z,100995.66
2023-04-09T02:36:44.339Z,100986.53
2023-04-09T02:37:25.264Z,100995.91
2023-04-09T02:38:05.424Z,100998.47
2023-04-09T02:38:48.312Z,100987.03
2023-04-09T02:39:28.379Z,100993.19
2023-04-09T02:40:08.268Z,100997.00
2023-04-09T02:40:48.337Z,100999.84
2023-04-09T02:41:28.279Z,100998.59
2023-04-09T02:42:08.367Z,100983.66
2023-04-09T02:42:48.310Z,100992.25
2023-04-09T02:43:28.395Z,101001.97
2023-04-09T02:44:08.288Z,100988.66
2023-04-09T02:44:48.410Z,100990.16
2023-04-09T02:45:28.284Z,100988.19
2023-04-09T02:46:08.631Z,100994.47
2023-04-09T02:46:49.620Z,100983.63
2023-04-09T02:47:30.535Z,100978.06
2023-04-09T02:48:11.286Z,100987.91
2023-04-09T02:48:51.606Z,100980.75
2023-04-09T02:49:32.269Z,100977.69
2023-04-09T02:50:13.390Z,100983.47
2023-04-09T02:50:53.294Z,100981.38
2023-04-09T02:51:34.332Z,100987.66
2023-04-09T02:52:17.319Z,100976.69
2023-04-09T02:52:57.378Z,100970.16
2023-04-09T02:53:37.248Z,100982.94
2023-04-09T02:54:17.447Z,100981.84
2023-04-09T02:54:58.352Z,100978.38
2023-04-09T02:55:38.349Z,100984.06
2023-04-09T02:56:18.354Z,100987.84
2023-04-09T02:56:58.391Z,100973.56
2023-04-09T02:57:40.271Z,100971.88
2023-04-09T02:58:20.419Z,100985.88
2023-04-09T02:59:00.333Z,100982.56
2023-04-09T02:59:40.733Z,100987.56
2023-04-09T03:00:21.294Z,100974.47
2023-04-09T03:01:01.405Z,100981.13
2023-04-09T03:01:41.350Z,100975.50
2023-04-09T03:02:22.619Z,100957.88
2023-04-09T03:03:02.363Z,100978.31
2023-04-09T03:03:43.118Z,100977.91
2023-04-09T03:04:23.384Z,100970.00
2023-04-09T03:05:03.371Z,100974.94
2023-04-09T03:05:44.338Z,100982.59
2023-04-09T03:06:25.407Z,100982.59
2023-04-09T03:07:05.257Z,100981.47
2023-04-09T03:07:45.380Z,100979.53
2023-04-09T03:08:25.257Z,100961.94
2023-04-09T03:09:05.334Z,100979.41
2023-04-09T03:09:45.299Z,100967.09
2023-04-09T03:10:25.470Z,100981.78
2023-04-09T03:11:05.274Z,100982.38
2023-04-09T03:11:45.340Z,100967.28
2023-04-09T03:12:25.299Z,100966.16
2023-04-09T03:13:05.321Z,100960.03
2023-04-09T03:13:45.256Z,100960.41
2023-04-09T03:14:25.408Z,100964.47
2023-04-09T03:15:05.302Z,100962.25
2023-04-09T03:15:45.513Z,100969.25
2023-04-09T03:16:25.403Z,100977.41
2023-04-09T03:17:19.257Z,100967.69
2023-04-09T03:18:13.247Z,100973.38
2023-04-09T03:19:07.226Z,100978.06
2023-04-09T03:20:01.256Z,100970.09
2023-04-09T03:20:55.245Z,100982.50
2023-04-09T03:21:42.247Z,100961.13
2023-04-09T03:22:16.334Z,100977.09
2023-04-09T03:23:03.229Z,100985.72
2023-04-09T03:23:37.380Z,100961.88
2023-04-09T03:24:24.275Z,100978.59
2023-04-09T03:24:58.331Z,100979.34
2023-04-09T03:25:45.229Z,100958.31
2023-04-09T03:26:19.332Z,100966.03
2023-04-09T03:27:06.304Z,100977.84
2023-04-09T03:27:40.334Z,100978.81
2023-04-09T03:28:28.230Z,100966.53
2023-04-09T03:29:02.348Z,100980.31
2023-04-09T03:29:49.221Z,100961.34
2023-04-09T03:30:23.320Z,100976.84
2023-04-09T03:31:10.245Z,100979.09
2023-04-09T03:31:44.416Z,100967.88
2023-04-09T03:32:31.252Z,100972.69
2023-04-09T03:33:05.399Z,100965.06
2023-04-09T03:33:52.235Z,100974.19
2023-04-09T03:34:26.350Z,100962.59
2023-04-09T03:35:14.234Z,100957.53
2023-04-09T03:35:48.346Z,100964.81
2023-04-09T03:36:35.260Z,100967.28
2023-04-09T03:37:09.360Z,100948.56
2023-04-09T03:37:56.231Z,100961.88
2023-04-09T03:38:30.360Z,100969.28
2023-04-09T03:39:17.200Z,100947.31
2023-04-09T03:39:51.386Z,100934.66
2023-04-09T03:40:40.216Z,100942.94
2023-04-09T03:41:14.306Z,100962.09
2023-04-09T03:42:03.244Z,100953.25
2023-04-09T03:42:37.471Z,100960.75
2023-04-09T03:43:18.259Z,100953.75
2023-04-09T03:43:58.362Z,100944.41
2023-04-09T03:44:38.224Z,100958.66
2023-04-09T03:45:18.288Z,100945.75
2023-04-09T03:45:59.232Z,100951.16
2023-04-09T03:46:39.366Z,100961.88
2023-04-09T03:47:20.269Z,100958.91
2023-04-09T03:48:00.334Z,100963.06
2023-04-09T03:48:40.248Z,100958.91
2023-04-09T03:49:20.444Z,100961.34
2023-04-09T03:50:01.282Z,100945.38
2023-04-09T03:50:48.345Z,100956.19
2023-04-09T03:51:29.207Z,100948.28
2023-04-09T03:52:09.355Z,100953.47
2023-04-09T03:52:49.242Z,100960.13
2023-04-09T03:53:29.312Z,100965.06
2023-04-09T03:54:09.256Z,100946.09
2023-04-09T03:54:49.291Z,100960.13
2023-04-09T03:55:30.261Z,100948.78
2023-04-09T03:56:10.309Z,100934.91
2023-04-09T03:56:50.214Z,100957.91
2023-04-09T03:57:30.501Z,100931.03
2023-04-09T03:58:10.206Z,100942.88
2023-04-09T03:58:51.587Z,100954.91
2023-04-09T03:59:33.205Z,100941.63
2023-04-09T04:00:14.284Z,100944.59
2023-04-09T04:00:55.207Z,100958.63
2023-04-09T04:01:35.389Z,100944.00
2023-04-09T04:03:19.254Z,100917.00
2023-04-09T04:03:53.362Z,100954.06
2023-04-09T04:04:40.266Z,100955.56
2023-04-09T04:05:17.357Z,100945.59
2023-04-09T04:06:11.212Z,100956.91
2023-04-09T04:06:45.321Z,100948.66
2023-04-09T04:07:32.199Z,100943.88
2023-04-09T04:08:06.259Z,100963.94
2023-04-09T04:08:53.331Z,100936.50
2023-04-09T04:09:27.246Z,100948.09
2023-04-09T04:10:07.205Z,100945.97
2023-04-09T04:10:47.285Z,100945.97
2023-04-09T04:11:28.182Z,100938.00
2023-04-09T04:12:08.289Z,100942.94
2023-04-09T04:12:48.246Z,100934.44
2023-04-09T04:13:28.377Z,100932.31
2023-04-09T04:14:08.190Z,100938.25
2023-04-09T04:14:48.276Z,100946.13
2023-04-09T04:15:28.208Z,100948.56
2023-04-09T04:16:09.307Z,100929.13
2023-04-09T04:16:49.204Z,100954.25
2023-04-09T04:17:29.314Z,100954.97
2023-04-09T04:18:09.157Z,100955.25
2023-04-09T04:18:49.346Z,100960.88
2023-04-09T04:19:29.204Z,100932.72
2023-04-09T04:20:24.187Z,100958.44
2023-04-09T04:21:04.280Z,100943.78
2023-04-09T04:21:44.269Z,100956.69
2023-04-09T04:22:26.105Z,100950.03
2023-04-09T04:23:06.647Z,100935.50
2023-04-09T04:23:47.209Z,100951.25
2023-04-09T04:24:27.242Z,100952.59
2023-04-09T04:25:07.174Z,100944.13
2023-04-09T04:25:50.713Z,100950.78
2023-04-09T04:26:32.215Z,100941.78
2023-04-09T04:27:12.276Z,100952.50
2023-04-09T04:27:53.181Z,100939.59
2023-04-09T04:28:33.261Z,100917.31
2023-04-09T04:29:13.156Z,100929.88
2023-04-09T04:29:53.237Z,100903.13
2023-04-09T04:30:33.163Z,100943.50
2023-04-09T04:31:19.319Z,100948.09
2023-04-09T04:32:00.391Z,100946.63
2023-04-09T04:32:40.436Z,100929.59
2023-04-09T04:33:20.164Z,100939.97
2023-04-09T04:34:00.281Z,100931.97
2023-04-09T04:34:40.179Z,100924.97
2023-04-09T04:35:21.336Z,100937.38
2023-04-09T04:36:18.168Z,100937.13
2023-04-09T04:36:58.253Z,100942.16
2023-04-09T04:37:40.175Z,100949.53
2023-04-09T04:38:20.264Z,100947.94
2023-04-09T04:39:00.217Z,100952.16
2023-04-09T04:39:40.467Z,100929.78
2023-04-09T04:40:21.186Z,100942.59
2023-04-09T04:41:01.355Z,100926.09
2023-04-09T04:41:41.149Z,100938.50
2023-04-09T04:42:21.293Z,100920.63
2023-04-09T04:43:01.178Z,100929.28
2023-04-09T04:43:41.556Z,100914.63
2023-04-09T04:44:22.242Z,100934.97
2023-04-09T04:45:02.306Z,100928.88
2023-04-09T04:45:42.193Z,100935.38
2023-04-09T04:46:22.283Z,100925.19
2023-04-09T04:47:02.149Z,100937.41
2023-04-09T04:47:42.279Z,100937.19
2023-04-09T04:48:23.146Z,100937.56
2023-04-09T04:49:03.551Z,100932.75
2023-04-09T04:49:44.146Z,100937.91
2023-04-09T04:50:24.243Z,100935.91
2023-04-09T04:51:07.196Z,100939.34
2023-04-09T04:51:47.290Z,100930.03
2023-04-09T04:52:28.179Z,100940.28
2023-04-09T04:53:08.297Z,100943.75
2023-04-09T04:53:48.182Z,100932.16
2023-04-09T04:54:28.366Z,100934.56
2023-04-09T04:55:08.140Z,100942.38
2023-04-09T04:55:48.228Z,100938.13
2023-04-09T04:56:29.300Z,100944.03
2023-04-09T04:57:10.210Z,100929.56
2023-04-09T04:57:50.158Z,100935.94
2023-04-09T04:58:31.464Z,100938.66
2023-04-09T04:59:12.168Z,100938.31
2023-04-09T04:59:52.252Z,100928.31
2023-04-09T05:00:33.141Z,100939.63
2023-04-09T05:01:13.308Z,100923.25
2023-04-09T05:01:53.293Z,100940.94
2023-04-09T05:02:33.480Z,100923.25
2023-04-09T05:03:13.195Z,100943.75
2023-04-09T05:03:53.576Z,100942.16
2023-04-09T05:04:34.204Z,100921.97
2023-04-09T05:05:14.259Z,100916.91
2023-04-09T05:05:55.225Z,100954.06
2023-04-09T05:06:35.314Z,100933.63
2023-04-09T05:07:15.147Z,100948.94
2023-04-09T05:07:55.235Z,100940.72
2023-04-09T05:08:36.115Z,100932.00
2023-04-09T05:09:16.324Z,100939.28
2023-04-09T05:09:57.335Z,100936.06
2023-04-09T05:10:37.351Z,100934.09
2023-04-09T05:11:21.162Z,100939.59
2023-04-09T05:12:01.801Z,100916.22
2023-04-09T05:12:43.155Z,100931.50
2023-04-09T05:13:23.294Z,100936.94
2023-04-09T05:14:03.138Z,100941.13
2023-04-09T05:14:43.194Z,100945.81
2023-04-09T05:15:23.151Z,100945.81
2023-04-09T05:16:03.701Z,100941.13
2023-04-09T05:16:45.194Z,100933.75
2023-04-09T05:17:25.317Z,100913.56
2023-04-09T05:18:06.107Z,100944.81
2023-04-09T05:18:46.277Z,100954.19
2023-04-09T05:19:26.137Z,100945.06
2023-04-09T05:20:06.345Z,100935.47
2023-04-09T05:20:47.141Z,100933.28
2023-04-09T05:21:27.666Z,100942.97
2023-04-09T05:22:08.108Z,100941.47
2023-04-09T05:22:48.299Z,100941.56
2023-04-09T05:23:28.119Z,100942.16
2023-04-09T05:24:08.228Z,100943.97
2023-04-09T05:24:49.122Z,100945.94
2023-04-09T05:25:29.213Z,100942.25
2023-04-09T05:26:09.250Z,100951.75
2023-04-09T05:26:49.235Z,100950.66
2023-04-09T05:27:37.110Z,100933.53
2023-04-09T05:28:11.371Z,100943.28
2023-04-09T05:28:59.174Z,100943.59
2023-04-09T05:29:33.245Z,100945.16
2023-04-09T05:30:20.125Z,100941.94
2023-04-09T05:30:54.242Z,100944.34
2023-04-09T05:31:34.160Z,100939.81
2023-04-09T05:32:14.187Z,100944.75
2023-04-09T05:32:55.354Z,100941.09
2023-04-09T05:33:38.226Z,100948.59
2023-04-09T05:34:25.126Z,100945.69
2023-04-09T05:35:01.650Z,100942.72
2023-04-09T05:35:53.139Z,100946.81
2023-04-09T05:36:27.509Z,100948.69
2023-04-09T05:37:08.132Z,100941.47
2023-04-09T05:37:42.280Z,100937.19
2023-04-09T05:38:15.859Z,100933.31
2023-04-09T05:38:56.296Z,100950.03
2023-04-09T05:39:30.248Z,100957.09
2023-04-09T05:40:04.412Z,100934.44
2023-04-09T05:40:44.168Z,100947.34
2023-04-09T05:41:18.286Z,100940.50
2023-04-09T05:41:52.574Z,100938.03
2023-04-09T05:42:32.250Z,100929.63
2023-04-09T05:43:09.282Z,100942.34
2023-04-09T05:43:43.243Z,100944.53
2023-04-09T05:44:23.130Z,100945.03
2023-04-09T05:44:57.408Z,100933.78
2023-04-09T05:45:31.856Z,100937.41
2023-04-09T05:46:13.235Z,100933.59
2023-04-09T05:46:47.326Z,100932.38
2023-04-09T05:47:20.999Z,100945.03
2023-04-09T05:48:01.184Z,100950.78
2023-04-09T05:48:35.241Z,100943.94
2023-04-09T05:49:08.939Z,100949.97
2023-04-09T05:49:50.236Z,100920.16
2023-04-09T05:50:30.411Z,100948.78
2023-04-09T05:51:11.112Z,100937.06
2023-04-09T05:51:51.221Z,100952.00
2023-04-09T05:52:31.090Z,100948.53
2023-04-09T05:53:20.334Z,100938.47
2023-04-09T05:53:54.873Z,100951.25
2023-04-09T05:54:43.198Z,100942.06
2023-04-09T05:55:17.012Z,100950.72
2023-04-09T05:56:04.170Z,100944.13
2023-04-09T05:56:37.989Z,100928.97
2023-04-09T05:57:25.171Z,100947.94
2023-04-09T05:58:00.959Z,100931.47
2023-04-09T05:58:42.154Z,100945.34
2023-04-09T05:59:16.181Z,100947.63
2023-04-09T05:59:49.873Z,100941.91
2023-04-09T06:00:33.724Z,100946.88
2023-04-09T06:01:07.312Z,100943.00
2023-04-09T06:01:42.302Z,100937.63
2023-04-09T06:02:25.618Z,100939.13
2023-04-09T06:02:59.316Z,100947.00
2023-04-09T06:03:32.941Z,100940.66
2023-04-09T06:04:13.366Z,100955.66
2023-04-09T06:04:47.239Z,100947.56
2023-04-09T06:05:22.149Z,100948.19
2023-04-09T06:06:05.096Z,100949.06
2023-04-09T06:06:39.218Z,100944.88
2023-04-09T06:07:12.860Z,100950.38
2023-04-09T06:07:54.116Z,100950.41
2023-04-09T06:08:28.186Z,100946.25
2023-04-09T06:09:01.848Z,100950.47
2023-04-09T06:09:49.936Z,100926.63
2023-04-09T06:10:24.227Z,100934.19
2023-04-09T06:10:59.629Z,100950.81
2023-04-09T06:11:41.086Z,100949.31
2023-04-09T06:12:15.821Z,100947.56
2023-04-09T06:12:49.837Z,100942.81
2023-04-09T06:13:31.089Z,100952.09
2023-04-09T06:14:09.280Z,100951.56
2023-04-09T06:14:42.843Z,100945.41
2023-04-09T06:15:24.156Z,100930.63
2023-04-09T06:15:58.197Z,100953.09
2023-04-09T06:16:36.392Z,100947.91
2023-04-09T06:17:17.160Z,100938.06
2023-04-09T06:17:51.200Z,100948.66
2023-04-09T06:18:24.907Z,100956.53
2023-04-09T06:19:05.080Z,100943.56
2023-04-09T06:19:39.158Z,100946.19
2023-04-09T06:20:12.830Z,100945.28
2023-04-09T06:20:53.180Z,100943.69
2023-04-09T06:21:27.458Z,100948.25
2023-04-09T06:22:02.008Z,100942.63
2023-04-09T06:22:42.181Z,100942.38
2023-04-09T06:23:16.283Z,100943.47
2023-04-09T06:23:50.542Z,100936.16
2023-04-09T06:24:31.364Z,100947.69
2023-04-09T06:25:05.262Z,100949.28
2023-04-09T06:25:40.087Z,100954.44
2023-04-09T06:26:23.158Z,100950.56
2023-04-09T06:26:57.242Z,100926.84
2023-04-09T06:27:33.249Z,100954.16
2023-04-09T06:28:15.171Z,100954.03
2023-04-09T06:28:49.194Z,100955.56
2023-04-09T06:29:24.578Z,100957.72
2023-04-09T06:30:05.080Z,100956.84
2023-04-09T06:30:39.234Z,100956.16
2023-04-09T06:31:12.882Z,100960.19
2023-04-09T06:31:54.082Z,100957.16
2023-04-09T06:32:28.296Z,100969.59
2023-04-09T06:33:01.876Z,100924.91
2023-04-09T06:33:43.043Z,100968.72
2023-04-09T06:34:17.256Z,100967.06
2023-04-09T06:34:50.811Z,100966.19
2023-04-09T06:35:31.364Z,100972.53
2023-04-09T06:36:06.258Z,100956.34
2023-04-09T06:36:54.082Z,100977.94
2023-04-09T06:37:35.707Z,100966.06
2023-04-09T06:38:17.097Z,100968.13
2023-04-09T06:38:57.712Z,100983.38
2023-04-09T06:39:42.480Z,100976.75
2023-04-09T06:40:28.242Z,100980.41
2023-04-09T06:41:10.268Z,100977.59
2023-04-09T06:41:51.167Z,100971.34
2023-04-09T06:42:31.080Z,100976.00
2023-04-09T06:43:12.186Z,100981.16
2023-04-09T06:43:52.208Z,100980.09
2023-04-09T06:44:33.250Z,100972.53
2023-04-09T06:45:17.230Z,100977.06
2023-04-09T06:45:58.395Z,100986.38
2023-04-09T06:46:39.076Z,100973.97
2023-04-09T06:47:19.289Z,100944.50
2023-04-09T06:48:07.083Z,100978.59
2023-04-09T06:48:42.494Z,100991.13
2023-04-09T06:49:29.049Z,100973.19
2023-04-09T06:50:03.225Z,100987.88
2023-04-09T06:50:51.094Z,100985.84
2023-04-09T06:51:25.292Z,100973.56
2023-04-09T06:52:14.037Z,100989.00
2023-04-09T06:52:48.140Z,100982.66
2023-04-09T06:53:28.081Z,100994.44
2023-04-09T06:54:08.144Z,100991.75
2023-04-09T06:54:49.070Z,100996.81
2023-04-09T06:55:29.382Z,100989.38
2023-04-09T06:56:10.069Z,100990.91
2023-04-09T06:56:50.294Z,100981.69
2023-04-09T06:57:30.038Z,100983.53
2023-04-09T06:58:11.292Z,100994.75
2023-04-09T06:58:51.089Z,100988.03
2023-04-09T06:59:31.116Z,100979.78
2023-04-09T07:00:12.053Z,101002.75
2023-04-09T07:00:53.138Z,100990.00
2023-04-09T07:01:34.123Z,100962.63
2023-04-09T07:02:16.286Z,100994.53
2023-04-09T07:02:57.214Z,100987.94
2023-04-09T07:03:38.341Z,100990.78
2023-04-09T07:04:19.160Z,100989.16
2023-04-09T07:04:59.091Z,100980.09
2023-04-09T07:05:40.050Z,101001.97
2023-04-09T07:06:21.205Z,101004.03
2023-04-09T07:07:03.051Z,101001.31
2023-04-09T07:07:43.185Z,100988.88
2023-04-09T07:08:23.085Z,101010.47
2023-04-09T07:09:03.255Z,101000.28
2023-04-09T07:09:43.045Z,101014.50
2023-04-09T07:10:24.103Z,100996.78
2023-04-09T07:11:05.050Z,101014.66
2023-04-09T07:11:45.423Z,101002.91
2023-04-09T07:12:40.034Z,101011.88
2023-04-09T07:13:20.660Z,100990.84
2023-04-09T07:14:03.038Z,100996.69
2023-04-09T07:14:50.110Z,101013.97
2023-04-09T07:15:44.232Z,101012.66
2023-04-09T07:16:39.059Z,101008.59
2023-04-09T07:17:34.148Z,101025.34
2023-04-09T07:18:28.053Z,101023.66
2023-04-09T07:19:22.044Z,101020.41
2023-04-09T07:20:10.040Z,101010.34
2023-04-09T07:20:44.279Z,101022.28
2023-04-09T07:21:31.034Z,101006.25
2023-04-09T07:22:05.247Z,101012.19
2023-04-09T07:22:52.044Z,101015.63
2023-04-09T07:23:26.286Z,101002.97
2023-04-09T07:24:14.030Z,101008.50
2023-04-09T07:24:53.508Z,101014.09
2023-04-09T07:25:33.024Z,101008.78
2023-04-09T07:26:14.141Z,101013.25
2023-04-09T07:26:54.037Z,101012.78
2023-04-09T07:27:35.141Z,101006.72
2023-04-09T07:28:16.022Z,101012.53
2023-04-09T07:28:56.213Z,101007.38
2023-04-09T07:29:36.013Z,101018.91
2023-04-09T07:30:17.122Z,101018.78
2023-04-09T07:30:58.112Z,101016.53
2023-04-09T07:31:38.330Z,101017.25
2023-04-09T07:32:19.073Z,101013.81
2023-04-09T07:32:59.318Z,101012.06
2023-04-09T07:33:39.101Z,101011.00
2023-04-09T07:34:20.134Z,101012.84
2023-04-09T07:35:02.045Z,101008.81
2023-04-09T07:35:42.328Z,100996.31
2023-04-09T07:36:23.102Z,101007.53
2023-04-09T07:37:03.117Z,101004.22
2023-04-09T07:37:44.040Z,101006.91
2023-04-09T07:38:25.103Z,101003.38
2023-04-09T07:39:04.993Z,101005.69
2023-04-09T07:39:45.289Z,101003.09
2023-04-09T07:40:25.804Z,100991.19
2023-04-09T07:41:06.239Z,101004.03
2023-04-09T07:41:46.329Z,101011.13
2023-04-09T07:42:27.340Z,101000.66
2023-04-09T07:43:07.019Z,100991.31
2023-04-09T07:43:48.217Z,101003.38
2023-04-09T07:44:28.023Z,100999.72
2023-04-09T07:45:08.175Z,100999.31
2023-04-09T07:45:48.034Z,100992.63
2023-04-09T07:46:29.122Z,101001.28
2023-04-09T07:47:11.020Z,100998.22
2023-04-09T07:47:51.689Z,101001.91
2023-04-09T07:48:31.993Z,100987.78
2023-04-09T07:49:12.219Z,100994.47
2023-04-09T07:49:54.013Z,101014.03
2023-04-09T07:50:34.122Z,100987.72
2023-04-09T07:51:14.980Z,101003.47
2023-04-09T07:51:55.353Z,101007.09
2023-04-09T07:52:34.989Z,100992.41
2023-04-09T07:53:15.206Z,101000.44
2023-04-09T07:53:56.002Z,100993.53
2023-04-09T07:54:36.076Z,100997.28
2023-04-09T07:55:18.438Z,101006.69
2023-04-09T07:55:59.070Z,101004.41
2023-04-09T07:56:38.991Z,101006.47
2023-04-09T07:57:19.290Z,101005.19
2023-04-09T07:58:00.061Z,100988.56
2023-04-09T07:58:41.246Z,100999.00
2023-04-09T07:59:23.986Z,101009.16
2023-04-09T08:00:04.134Z,101006.06
2023-04-09T08:00:44.078Z,101007.69
2023-04-09T08:01:26.052Z,101004.56